PLS weather

Public forecast

Using degrees Celsius for public forecast. Weather courtesy of forecast.io.

Current aviation weather report (METAR) for Providenciales Airport

Report is more than 6 hours old.

Retrieved 2020/08/10 21:00 UTC (16 hours ago):

MBPV 102100Z 07010KT 9999 SCT012 31/22 Q1014

Aviation forecast (TAF) for Providenciales Airport

Forecast is more than 12 hours old.

Retrieved 2020-08-11 00:18 UTC (13 hours ago):

TAF MBPV 102145Z 1100/1124 09006KT 9999 SCT022 BECMG 1112/1114 09013KT